sensor_id;sensor_type;location;lat;lon;timestamp;P1;durP1;ratioP1;P2;durP2;ratioP2
34902;SDS011;21114;44.840;0.214;2022-12-08T00:02:06;20.63;;;15.10;;
34902;SDS011;21114;44.840;0.214;2022-12-08T00:04:32;22.23;;;16.42;;
34902;SDS011;21114;44.840;0.214;2022-12-08T00:07:18;28.80;;;19.23;;
34902;SDS011;21114;44.840;0.214;2022-12-08T00:10:12;26.88;;;20.00;;
34902;SDS011;21114;44.840;0.214;2022-12-08T00:12:38;25.08;;;18.40;;
34902;SDS011;21114;44.840;0.214;2022-12-08T00:15:05;27.83;;;20.42;;
34902;SDS011;21114;44.840;0.214;2022-12-08T00:17:31;23.17;;;17.48;;
34902;SDS011;21114;44.840;0.214;2022-12-08T00:19:57;30.33;;;20.80;;
34902;SDS011;21114;44.840;0.214;2022-12-08T00:22:23;26.00;;;20.48;;
34902;SDS011;21114;44.840;0.214;2022-12-08T00:24:49;27.40;;;20.00;;
34902;SDS011;21114;44.840;0.214;2022-12-08T00:27:15;22.92;;;18.17;;
34902;SDS011;21114;44.840;0.214;2022-12-08T00:29:42;21.45;;;15.85;;
34902;SDS011;21114;44.840;0.214;2022-12-08T00:32:57;24.83;;;17.02;;
34902;SDS011;21114;44.840;0.214;2022-12-08T00:35:23;22.77;;;16.65;;
34902;SDS011;21114;44.840;0.214;2022-12-08T00:37:49;31.80;;;24.30;;
34902;SDS011;21114;44.840;0.214;2022-12-08T00:40:15;23.13;;;16.02;;
34902;SDS011;21114;44.840;0.214;2022-12-08T00:42:41;19.90;;;16.13;;
34902;SDS011;21114;44.840;0.214;2022-12-08T00:45:07;23.58;;;17.08;;
34902;SDS011;21114;44.840;0.214;2022-12-08T00:47:33;22.77;;;16.65;;
34902;SDS011;21114;44.840;0.214;2022-12-08T00:50:00;23.73;;;16.83;;
34902;SDS011;21114;44.840;0.214;2022-12-08T00:52:26;25.60;;;18.00;;
34902;SDS011;21114;44.840;0.214;2022-12-08T00:54:52;25.73;;;18.20;;
34902;SDS011;21114;44.840;0.214;2022-12-08T00:57:18;22.48;;;17.67;;
34902;SDS011;21114;44.840;0.214;2022-12-08T00:59:44;25.88;;;16.30;;
34902;SDS011;21114;44.840;0.214;2022-12-08T01:02:10;23.17;;;17.35;;
34902;SDS011;21114;44.840;0.214;2022-12-08T01:04:36;25.35;;;18.13;;
34902;SDS011;21114;44.840;0.214;2022-12-08T01:07:51;21.52;;;15.82;;
34902;SDS011;21114;44.840;0.214;2022-12-08T01:10:17;20.98;;;15.95;;
34902;SDS011;21114;44.840;0.214;2022-12-08T01:12:43;24.17;;;15.48;;
34902;SDS011;21114;44.840;0.214;2022-12-08T01:15:09;22.20;;;15.48;;
34902;SDS011;21114;44.840;0.214;2022-12-08T01:17:36;23.90;;;15.98;;
34902;SDS011;21114;44.840;0.214;2022-12-08T01:20:02;22.33;;;16.50;;
34902;SDS011;21114;44.840;0.214;2022-12-08T01:23:17;24.95;;;15.88;;
34902;SDS011;21114;44.840;0.214;2022-12-08T01:25:43;19.55;;;14.50;;
34902;SDS011;21114;44.840;0.214;2022-12-08T01:28:09;21.38;;;15.02;;
34902;SDS011;21114;44.840;0.214;2022-12-08T01:30:37;21.25;;;14.82;;
34902;SDS011;21114;44.840;0.214;2022-12-08T01:33:52;20.38;;;13.55;;
34902;SDS011;21114;44.840;0.214;2022-12-08T01:38:58;21.42;;;15.52;;
34902;SDS011;21114;44.840;0.214;2022-12-08T01:42:21;21.98;;;17.98;;
34902;SDS011;21114;44.840;0.214;2022-12-08T01:45:35;23.80;;;17.63;;
34902;SDS011;21114;44.840;0.214;2022-12-08T01:48:03;24.20;;;15.93;;
34902;SDS011;21114;44.840;0.214;2022-12-08T01:51:18;20.67;;;15.30;;
34902;SDS011;21114;44.840;0.214;2022-12-08T01:53:45;19.90;;;15.35;;
34902;SDS011;21114;44.840;0.214;2022-12-08T01:57:02;21.23;;;15.40;;
34902;SDS011;21114;44.840;0.214;2022-12-08T02:00:19;19.90;;;15.25;;
34902;SDS011;21114;44.840;0.214;2022-12-08T02:03:37;19.08;;;13.70;;
34902;SDS011;21114;44.840;0.214;2022-12-08T02:06:32;19.42;;;15.25;;
34902;SDS011;21114;44.840;0.214;2022-12-08T02:09:31;22.35;;;13.95;;
34902;SDS011;21114;44.840;0.214;2022-12-08T02:11:57;19.77;;;14.88;;
34902;SDS011;21114;44.840;0.214;2022-12-08T02:15:12;20.23;;;14.82;;
34902;SDS011;21114;44.840;0.214;2022-12-08T02:30:17;16.25;;;11.43;;
34902;SDS011;21114;44.840;0.214;2022-12-08T02:42:01;12.75;;;10.60;;
34902;SDS011;21114;44.840;0.214;2022-12-08T02:45:21;11.50;;;9.32;;
34902;SDS011;21114;44.840;0.214;2022-12-08T02:48:38;12.05;;;10.07;;
34902;SDS011;21114;44.840;0.214;2022-12-08T02:51:04;14.68;;;10.27;;
34902;SDS011;21114;44.840;0.214;2022-12-08T02:54:19;12.05;;;9.38;;
34902;SDS011;21114;44.840;0.214;2022-12-08T02:56:49;16.45;;;10.95;;
34902;SDS011;21114;44.840;0.214;2022-12-08T03:00:11;17.58;;;10.38;;
34902;SDS011;21114;44.840;0.214;2022-12-08T03:08:50;16.05;;;10.32;;
34902;SDS011;21114;44.840;0.214;2022-12-08T03:14:50;12.88;;;10.40;;
34902;SDS011;21114;44.840;0.214;2022-12-08T03:18:06;16.48;;;10.05;;
34902;SDS011;21114;44.840;0.214;2022-12-08T03:21:25;13.85;;;9.52;;
34902;SDS011;21114;44.840;0.214;2022-12-08T03:23:52;16.92;;;12.23;;
34902;SDS011;21114;44.840;0.214;2022-12-08T03:27:10;12.07;;;10.85;;
34902;SDS011;21114;44.840;0.214;2022-12-08T03:30:26;13.50;;;10.27;;
34902;SDS011;21114;44.840;0.214;2022-12-08T03:33:42;13.10;;;9.73;;
34902;SDS011;21114;44.840;0.214;2022-12-08T03:36:57;16.42;;;10.73;;
34902;SDS011;21114;44.840;0.214;2022-12-08T03:40:14;13.35;;;10.90;;
34902;SDS011;21114;44.840;0.214;2022-12-08T03:43:57;13.25;;;9.20;;
34902;SDS011;21114;44.840;0.214;2022-12-08T03:46:24;12.85;;;9.70;;
34902;SDS011;21114;44.840;0.214;2022-12-08T03:49:39;15.25;;;10.10;;
34902;SDS011;21114;44.840;0.214;2022-12-08T03:52:05;12.75;;;9.25;;
34902;SDS011;21114;44.840;0.214;2022-12-08T03:54:31;13.05;;;10.20;;
34902;SDS011;21114;44.840;0.214;2022-12-08T03:56:57;11.82;;;9.00;;
34902;SDS011;21114;44.840;0.214;2022-12-08T03:59:23;12.73;;;10.63;;
34902;SDS011;21114;44.840;0.214;2022-12-08T04:01:50;11.02;;;8.57;;
34902;SDS011;21114;44.840;0.214;2022-12-08T04:04:16;13.50;;;10.35;;
34902;SDS011;21114;44.840;0.214;2022-12-08T04:06:43;12.88;;;9.23;;
34902;SDS011;21114;44.840;0.214;2022-12-08T04:09:09;10.90;;;8.50;;
34902;SDS011;21114;44.840;0.214;2022-12-08T04:11:35;13.10;;;10.07;;
34902;SDS011;21114;44.840;0.214;2022-12-08T04:14:01;12.32;;;9.00;;
34902;SDS011;21114;44.840;0.214;2022-12-08T04:16:27;15.05;;;10.50;;
34902;SDS011;21114;44.840;0.214;2022-12-08T04:18:53;12.48;;;9.00;;
34902;SDS011;21114;44.840;0.214;2022-12-08T04:21:19;10.23;;;8.18;;
34902;SDS011;21114;44.840;0.214;2022-12-08T04:23:45;10.57;;;8.57;;
34902;SDS011;21114;44.840;0.214;2022-12-08T04:26:12;11.07;;;8.27;;
34902;SDS011;21114;44.840;0.214;2022-12-08T04:28:38;10.90;;;8.25;;
34902;SDS011;21114;44.840;0.214;2022-12-08T04:31:04;11.55;;;8.73;;
34902;SDS011;21114;44.840;0.214;2022-12-08T04:34:19;10.70;;;8.35;;
34902;SDS011;21114;44.840;0.214;2022-12-08T04:36:45;11.23;;;8.68;;
34902;SDS011;21114;44.840;0.214;2022-12-08T04:39:11;10.85;;;9.48;;
34902;SDS011;21114;44.840;0.214;2022-12-08T04:41:37;10.90;;;8.95;;
34902;SDS011;21114;44.840;0.214;2022-12-08T04:44:03;14.30;;;9.52;;
34902;SDS011;21114;44.840;0.214;2022-12-08T04:46:29;14.88;;;10.63;;
34902;SDS011;21114;44.840;0.214;2022-12-08T04:48:55;9.90;;;8.57;;
34902;SDS011;21114;44.840;0.214;2022-12-08T04:51:21;11.77;;;8.02;;
34902;SDS011;21114;44.840;0.214;2022-12-08T04:53:48;10.88;;;8.38;;
34902;SDS011;21114;44.840;0.214;2022-12-08T04:56:15;10.27;;;7.93;;
34902;SDS011;21114;44.840;0.214;2022-12-08T04:59:29;14.15;;;8.25;;
34902;SDS011;21114;44.840;0.214;2022-12-08T05:01:55;16.40;;;8.30;;
34902;SDS011;21114;44.840;0.214;2022-12-08T05:04:21;10.45;;;7.88;;
34902;SDS011;21114;44.840;0.214;2022-12-08T05:06:47;11.02;;;8.40;;
34902;SDS011;21114;44.840;0.214;2022-12-08T05:09:14;10.65;;;8.23;;
34902;SDS011;21114;44.840;0.214;2022-12-08T05:11:40;10.07;;;8.10;;
34902;SDS011;21114;44.840;0.214;2022-12-08T05:14:07;13.07;;;7.93;;
34902;SDS011;21114;44.840;0.214;2022-12-08T05:17:23;11.45;;;9.00;;
34902;SDS011;21114;44.840;0.214;2022-12-08T05:19:49;12.73;;;7.95;;
34902;SDS011;21114;44.840;0.214;2022-12-08T05:22:15;11.40;;;9.23;;
34902;SDS011;21114;44.840;0.214;2022-12-08T05:24:41;11.25;;;8.93;;
34902;SDS011;21114;44.840;0.214;2022-12-08T05:27:08;11.80;;;8.25;;
34902;SDS011;21114;44.840;0.214;2022-12-08T05:30:23;13.70;;;9.00;;
34902;SDS011;21114;44.840;0.214;2022-12-08T05:33:39;9.93;;;7.35;;
34902;SDS011;21114;44.840;0.214;2022-12-08T05:36:05;10.45;;;7.15;;
34902;SDS011;21114;44.840;0.214;2022-12-08T05:38:31;9.40;;;7.43;;
34902;SDS011;21114;44.840;0.214;2022-12-08T05:40:57;12.00;;;8.48;;
34902;SDS011;21114;44.840;0.214;2022-12-08T05:43:24;9.93;;;7.30;;
34902;SDS011;21114;44.840;0.214;2022-12-08T05:45:50;11.15;;;8.52;;
34902;SDS011;21114;44.840;0.214;2022-12-08T05:48:16;8.60;;;7.35;;
34902;SDS011;21114;44.840;0.214;2022-12-08T05:50:45;9.80;;;8.35;;
34902;SDS011;21114;44.840;0.214;2022-12-08T05:54:00;10.73;;;7.68;;
34902;SDS011;21114;44.840;0.214;2022-12-08T05:56:26;12.93;;;8.52;;
34902;SDS011;21114;44.840;0.214;2022-12-08T05:58:52;9.93;;;8.50;;
34902;SDS011;21114;44.840;0.214;2022-12-08T06:01:20;9.43;;;7.35;;
34902;SDS011;21114;44.840;0.214;2022-12-08T06:04:35;10.15;;;7.15;;
34902;SDS011;21114;44.840;0.214;2022-12-08T06:07:01;10.32;;;8.38;;
34902;SDS011;21114;44.840;0.214;2022-12-08T06:09:27;12.50;;;8.75;;
34902;SDS011;21114;44.840;0.214;2022-12-08T06:11:53;13.25;;;11.52;;
34902;SDS011;21114;44.840;0.214;2022-12-08T06:14:19;9.80;;;7.28;;
34902;SDS011;21114;44.840;0.214;2022-12-08T06:16:45;9.60;;;7.68;;
34902;SDS011;21114;44.840;0.214;2022-12-08T06:19:11;10.63;;;7.68;;
34902;SDS011;21114;44.840;0.214;2022-12-08T06:21:38;12.27;;;7.40;;
34902;SDS011;21114;44.840;0.214;2022-12-08T06:24:04;10.32;;;7.72;;
34902;SDS011;21114;44.840;0.214;2022-12-08T06:26:30;10.88;;;8.50;;
34902;SDS011;21114;44.840;0.214;2022-12-08T06:28:56;8.55;;;7.15;;
34902;SDS011;21114;44.840;0.214;2022-12-08T06:31:25;10.00;;;8.15;;
34902;SDS011;21114;44.840;0.214;2022-12-08T06:34:40;10.40;;;7.72;;
34902;SDS011;21114;44.840;0.214;2022-12-08T06:37:06;10.23;;;6.85;;
34902;SDS011;21114;44.840;0.214;2022-12-08T06:39:32;9.60;;;6.93;;
34902;SDS011;21114;44.840;0.214;2022-12-08T06:41:58;10.32;;;7.07;;
34902;SDS011;21114;44.840;0.214;2022-12-08T06:44:52;9.95;;;7.60;;
34902;SDS011;21114;44.840;0.214;2022-12-08T06:49:59;12.60;;;9.00;;
34902;SDS011;21114;44.840;0.214;2022-12-08T06:52:25;8.57;;;7.60;;
34902;SDS011;21114;44.840;0.214;2022-12-08T06:54:51;13.80;;;6.57;;
34902;SDS011;21114;44.840;0.214;2022-12-08T06:57:17;8.23;;;6.70;;
34902;SDS011;21114;44.840;0.214;2022-12-08T06:59:44;10.80;;;7.57;;
34902;SDS011;21114;44.840;0.214;2022-12-08T07:02:10;9.23;;;7.65;;
34902;SDS011;21114;44.840;0.214;2022-12-08T07:04:36;9.48;;;7.75;;
34902;SDS011;21114;44.840;0.214;2022-12-08T07:07:02;10.45;;;7.68;;
34902;SDS011;21114;44.840;0.214;2022-12-08T07:09:28;11.55;;;6.95;;
34902;SDS011;21114;44.840;0.214;2022-12-08T07:11:54;11.02;;;7.75;;
34902;SDS011;21114;44.840;0.214;2022-12-08T07:14:20;12.63;;;8.80;;
34902;SDS011;21114;44.840;0.214;2022-12-08T07:16:49;9.77;;;7.32;;
34902;SDS011;21114;44.840;0.214;2022-12-08T07:20:03;11.45;;;6.72;;
34902;SDS011;21114;44.840;0.214;2022-12-08T07:22:30;10.52;;;7.80;;
34902;SDS011;21114;44.840;0.214;2022-12-08T07:24:56;9.95;;;7.47;;
34902;SDS011;21114;44.840;0.214;2022-12-08T07:27:22;10.00;;;7.85;;
34902;SDS011;21114;44.840;0.214;2022-12-08T07:29:48;11.27;;;7.68;;
34902;SDS011;21114;44.840;0.214;2022-12-08T07:32:14;10.05;;;7.93;;
34902;SDS011;21114;44.840;0.214;2022-12-08T07:34:40;10.82;;;8.18;;
34902;SDS011;21114;44.840;0.214;2022-12-08T07:37:06;12.63;;;10.15;;
34902;SDS011;21114;44.840;0.214;2022-12-08T07:39:32;9.45;;;8.38;;
34902;SDS011;21114;44.840;0.214;2022-12-08T07:41:58;9.18;;;8.27;;
34902;SDS011;21114;44.840;0.214;2022-12-08T07:44:24;9.13;;;7.15;;
34902;SDS011;21114;44.840;0.214;2022-12-08T07:46:51;8.20;;;7.18;;
34902;SDS011;21114;44.840;0.214;2022-12-08T07:49:17;10.23;;;8.07;;
34902;SDS011;21114;44.840;0.214;2022-12-08T07:51:43;8.93;;;8.00;;
34902;SDS011;21114;44.840;0.214;2022-12-08T07:54:10;10.73;;;7.60;;
34902;SDS011;21114;44.840;0.214;2022-12-08T07:57:24;9.70;;;7.53;;
34902;SDS011;21114;44.840;0.214;2022-12-08T07:59:50;8.40;;;7.05;;
34902;SDS011;21114;44.840;0.214;2022-12-08T08:02:17;9.40;;;6.85;;
34902;SDS011;21114;44.840;0.214;2022-12-08T08:05:32;10.43;;;6.60;;
34902;SDS011;21114;44.840;0.214;2022-12-08T08:07:58;8.10;;;6.53;;
34902;SDS011;21114;44.840;0.214;2022-12-08T08:10:24;12.57;;;7.75;;
34902;SDS011;21114;44.840;0.214;2022-12-08T08:12:51;8.00;;;6.53;;
34902;SDS011;21114;44.840;0.214;2022-12-08T08:15:17;9.27;;;7.18;;
34902;SDS011;21114;44.840;0.214;2022-12-08T08:17:47;9.02;;;6.60;;
34902;SDS011;21114;44.840;0.214;2022-12-08T08:21:02;8.73;;;6.35;;
34902;SDS011;21114;44.840;0.214;2022-12-08T08:23:28;11.20;;;6.97;;
34902;SDS011;21114;44.840;0.214;2022-12-08T08:25:57;13.68;;;8.45;;
34902;SDS011;21114;44.840;0.214;2022-12-08T08:29:11;8.57;;;7.60;;
34902;SDS011;21114;44.840;0.214;2022-12-08T08:31:37;8.75;;;6.70;;
34902;SDS011;21114;44.840;0.214;2022-12-08T08:34:03;11.32;;;7.93;;
34902;SDS011;21114;44.840;0.214;2022-12-08T08:36:30;12.88;;;9.15;;
34902;SDS011;21114;44.840;0.214;2022-12-08T08:39:33;11.52;;;8.05;;
34902;SDS011;21114;44.840;0.214;2022-12-08T08:41:59;10.90;;;8.23;;
34902;SDS011;21114;44.840;0.214;2022-12-08T08:44:25;8.82;;;7.13;;
34902;SDS011;21114;44.840;0.214;2022-12-08T08:46:51;11.07;;;7.90;;
34902;SDS011;21114;44.840;0.214;2022-12-08T08:49:18;7.97;;;7.18;;
34902;SDS011;21114;44.840;0.214;2022-12-08T08:51:44;10.95;;;8.40;;
34902;SDS011;21114;44.840;0.214;2022-12-08T08:54:10;9.93;;;6.65;;
34902;SDS011;21114;44.840;0.214;2022-12-08T08:56:36;10.48;;;8.10;;
34902;SDS011;21114;44.840;0.214;2022-12-08T08:59:02;11.32;;;8.05;;
34902;SDS011;21114;44.840;0.214;2022-12-08T09:01:28;13.20;;;8.82;;
34902;SDS011;21114;44.840;0.214;2022-12-08T09:03:55;11.85;;;8.20;;
34902;SDS011;21114;44.840;0.214;2022-12-08T09:06:21;14.10;;;10.15;;
34902;SDS011;21114;44.840;0.214;2022-12-08T09:09:36;8.60;;;6.97;;
34902;SDS011;21114;44.840;0.214;2022-12-08T09:12:02;10.10;;;7.88;;
34902;SDS011;21114;44.840;0.214;2022-12-08T09:14:29;18.50;;;8.57;;
34902;SDS011;21114;44.840;0.214;2022-12-08T09:16:55;9.25;;;7.22;;
34902;SDS011;21114;44.840;0.214;2022-12-08T09:19:21;9.27;;;7.30;;
34902;SDS011;21114;44.840;0.214;2022-12-08T09:21:47;9.27;;;7.05;;
34902;SDS011;21114;44.840;0.214;2022-12-08T09:24:13;11.07;;;8.25;;
34902;SDS011;21114;44.840;0.214;2022-12-08T09:26:41;10.25;;;7.82;;
34902;SDS011;21114;44.840;0.214;2022-12-08T09:29:55;10.85;;;8.93;;
34902;SDS011;21114;44.840;0.214;2022-12-08T09:32:21;20.85;;;10.18;;
34902;SDS011;21114;44.840;0.214;2022-12-08T09:34:48;10.88;;;9.02;;
34902;SDS011;21114;44.840;0.214;2022-12-08T09:37:14;9.00;;;7.90;;
34902;SDS011;21114;44.840;0.214;2022-12-08T09:39:40;10.05;;;8.02;;
34902;SDS011;21114;44.840;0.214;2022-12-08T09:42:06;12.63;;;8.60;;
34902;SDS011;21114;44.840;0.214;2022-12-08T09:47:28;16.00;;;10.85;;
34902;SDS011;21114;44.840;0.214;2022-12-08T09:50:46;10.70;;;8.25;;
34902;SDS011;21114;44.840;0.214;2022-12-08T09:54:05;11.32;;;7.68;;
34902;SDS011;21114;44.840;0.214;2022-12-08T09:57:20;10.38;;;7.75;;
34902;SDS011;21114;44.840;0.214;2022-12-08T10:00:36;8.55;;;6.97;;
34902;SDS011;21114;44.840;0.214;2022-12-08T10:03:02;13.32;;;7.55;;
34902;SDS011;21114;44.840;0.214;2022-12-08T10:05:29;11.40;;;8.10;;
34902;SDS011;21114;44.840;0.214;2022-12-08T10:08:28;9.75;;;8.20;;
34902;SDS011;21114;44.840;0.214;2022-12-08T10:11:50;14.65;;;9.95;;
34902;SDS011;21114;44.840;0.214;2022-12-08T10:15:18;13.95;;;9.07;;
34902;SDS011;21114;44.840;0.214;2022-12-08T10:18:40;12.88;;;8.23;;
34902;SDS011;21114;44.840;0.214;2022-12-08T10:21:31;10.45;;;9.13;;
34902;SDS011;21114;44.840;0.214;2022-12-08T10:24:00;13.25;;;9.50;;
34902;SDS011;21114;44.840;0.214;2022-12-08T10:27:15;15.77;;;10.27;;
34902;SDS011;21114;44.840;0.214;2022-12-08T10:29:41;11.10;;;9.02;;
34902;SDS011;21114;44.840;0.214;2022-12-08T10:32:12;25.80;;;11.40;;
34902;SDS011;21114;44.840;0.214;2022-12-08T10:38:26;15.90;;;10.75;;
34902;SDS011;21114;44.840;0.214;2022-12-08T10:41:42;12.27;;;8.68;;
34902;SDS011;21114;44.840;0.214;2022-12-08T10:44:08;15.02;;;10.25;;
34902;SDS011;21114;44.840;0.214;2022-12-08T10:46:34;12.05;;;9.63;;
34902;SDS011;21114;44.840;0.214;2022-12-08T10:49:29;12.65;;;9.35;;
34902;SDS011;21114;44.840;0.214;2022-12-08T10:51:57;14.13;;;9.75;;
34902;SDS011;21114;44.840;0.214;2022-12-08T10:54:28;15.77;;;10.88;;
34902;SDS011;21114;44.840;0.214;2022-12-08T10:57:33;12.35;;;10.30;;
34902;SDS011;21114;44.840;0.214;2022-12-08T11:00:34;16.02;;;11.27;;
34902;SDS011;21114;44.840;0.214;2022-12-08T11:06:38;22.52;;;18.20;;
34902;SDS011;21114;44.840;0.214;2022-12-08T11:09:54;14.98;;;11.45;;
34902;SDS011;21114;44.840;0.214;2022-12-08T11:13:13;21.67;;;15.55;;
34902;SDS011;21114;44.840;0.214;2022-12-08T11:16:29;15.57;;;9.65;;
34902;SDS011;21114;44.840;0.214;2022-12-08T11:18:55;10.93;;;8.93;;
34902;SDS011;21114;44.840;0.214;2022-12-08T11:25:09;10.98;;;8.63;;
34902;SDS011;21114;44.840;0.214;2022-12-08T11:28:23;12.02;;;9.00;;
34902;SDS011;21114;44.840;0.214;2022-12-08T11:31:42;11.23;;;8.57;;
34902;SDS011;21114;44.840;0.214;2022-12-08T11:35:01;12.02;;;9.18;;
34902;SDS011;21114;44.840;0.214;2022-12-08T11:37:54;9.23;;;8.13;;
34902;SDS011;21114;44.840;0.214;2022-12-08T11:41:13;9.05;;;7.50;;
34902;SDS011;21114;44.840;0.214;2022-12-08T11:47:11;13.02;;;9.00;;
34902;SDS011;21114;44.840;0.214;2022-12-08T11:50:28;9.98;;;7.55;;
34902;SDS011;21114;44.840;0.214;2022-12-08T11:56:23;13.15;;;9.18;;
34902;SDS011;21114;44.840;0.214;2022-12-08T11:59:46;10.32;;;7.28;;
34902;SDS011;21114;44.840;0.214;2022-12-08T12:02:38;8.70;;;7.13;;
34902;SDS011;21114;44.840;0.214;2022-12-08T12:05:58;8.55;;;7.00;;
34902;SDS011;21114;44.840;0.214;2022-12-08T12:23:09;10.00;;;7.30;;
34902;SDS011;21114;44.840;0.214;2022-12-08T12:26:28;15.80;;;11.75;;
34902;SDS011;21114;44.840;0.214;2022-12-08T12:29:36;13.93;;;11.45;;
34902;SDS011;21114;44.840;0.214;2022-12-08T12:35:32;29.88;;;20.30;;
34902;SDS011;21114;44.840;0.214;2022-12-08T12:38:45;11.90;;;7.63;;
34902;SDS011;21114;44.840;0.214;2022-12-08T12:42:01;8.13;;;7.28;;
34902;SDS011;21114;44.840;0.214;2022-12-08T12:55:55;9.20;;;7.57;;
34902;SDS011;21114;44.840;0.214;2022-12-08T13:02:10;12.48;;;9.85;;
34902;SDS011;21114;44.840;0.214;2022-12-08T13:05:29;9.30;;;7.93;;
34902;SDS011;21114;44.840;0.214;2022-12-08T13:08:52;16.17;;;8.38;;
34902;SDS011;21114;44.840;0.214;2022-12-08T13:12:09;11.55;;;8.82;;
34902;SDS011;21114;44.840;0.214;2022-12-08T13:15:24;11.02;;;7.93;;
34902;SDS011;21114;44.840;0.214;2022-12-08T13:17:50;9.38;;;7.10;;
34902;SDS011;21114;44.840;0.214;2022-12-08T13:20:18;12.07;;;8.85;;
34902;SDS011;21114;44.840;0.214;2022-12-08T13:26:14;13.30;;;8.27;;
34902;SDS011;21114;44.840;0.214;2022-12-08T13:29:34;11.75;;;9.50;;
34902;SDS011;21114;44.840;0.214;2022-12-08T13:32:00;12.40;;;9.23;;
34902;SDS011;21114;44.840;0.214;2022-12-08T13:35:04;13.13;;;9.32;;
34902;SDS011;21114;44.840;0.214;2022-12-08T13:38:19;13.98;;;9.05;;
34902;SDS011;21114;44.840;0.214;2022-12-08T13:40:54;11.50;;;8.32;;
34902;SDS011;21114;44.840;0.214;2022-12-08T13:43:24;14.30;;;12.05;;
34902;SDS011;21114;44.840;0.214;2022-12-08T13:46:42;9.18;;;7.88;;
34902;SDS011;21114;44.840;0.214;2022-12-08T13:49:48;10.07;;;7.38;;
34902;SDS011;21114;44.840;0.214;2022-12-08T13:58:28;12.38;;;8.90;;
34902;SDS011;21114;44.840;0.214;2022-12-08T14:01:43;13.40;;;8.85;;
34902;SDS011;21114;44.840;0.214;2022-12-08T14:04:27;13.85;;;8.85;;
34902;SDS011;21114;44.840;0.214;2022-12-08T14:06:56;12.38;;;8.88;;
34902;SDS011;21114;44.840;0.214;2022-12-08T14:09:52;15.40;;;10.88;;
34902;SDS011;21114;44.840;0.214;2022-12-08T14:12:20;17.27;;;13.93;;
34902;SDS011;21114;44.840;0.214;2022-12-08T14:15:37;18.15;;;11.43;;
34902;SDS011;21114;44.840;0.214;2022-12-08T14:18:35;12.02;;;9.45;;
34902;SDS011;21114;44.840;0.214;2022-12-08T14:21:02;14.52;;;10.80;;
34902;SDS011;21114;44.840;0.214;2022-12-08T14:24:17;13.38;;;9.63;;
34902;SDS011;21114;44.840;0.214;2022-12-08T14:26:44;13.60;;;10.48;;
34902;SDS011;21114;44.840;0.214;2022-12-08T14:29:59;15.65;;;11.15;;
34902;SDS011;21114;44.840;0.214;2022-12-08T14:33:15;19.42;;;14.68;;
34902;SDS011;21114;44.840;0.214;2022-12-08T14:35:41;19.83;;;13.15;;
34902;SDS011;21114;44.840;0.214;2022-12-08T14:38:11;19.55;;;13.52;;
34902;SDS011;21114;44.840;0.214;2022-12-08T14:41:29;21.02;;;16.13;;
34902;SDS011;21114;44.840;0.214;2022-12-08T14:44:37;15.18;;;11.90;;
34902;SDS011;21114;44.840;0.214;2022-12-08T14:47:06;14.95;;;11.98;;
34902;SDS011;21114;44.840;0.214;2022-12-08T14:53:15;13.35;;;10.45;;
34902;SDS011;21114;44.840;0.214;2022-12-08T14:56:32;15.73;;;11.20;;
34902;SDS011;21114;44.840;0.214;2022-12-08T14:59:49;19.38;;;12.02;;
34902;SDS011;21114;44.840;0.214;2022-12-08T15:07:48;16.85;;;14.45;;
34902;SDS011;21114;44.840;0.214;2022-12-08T15:10:40;20.30;;;15.13;;
34902;SDS011;21114;44.840;0.214;2022-12-08T15:18:34;16.33;;;14.02;;
34902;SDS011;21114;44.840;0.214;2022-12-08T15:21:36;15.18;;;12.75;;
34902;SDS011;21114;44.840;0.214;2022-12-08T15:24:51;25.50;;;17.58;;
34902;SDS011;21114;44.840;0.214;2022-12-08T15:28:06;24.10;;;17.23;;
34902;SDS011;21114;44.840;0.214;2022-12-08T15:31:22;26.98;;;20.48;;
34902;SDS011;21114;44.840;0.214;2022-12-08T15:33:48;27.23;;;20.35;;
34902;SDS011;21114;44.840;0.214;2022-12-08T15:36:14;25.92;;;19.33;;
34902;SDS011;21114;44.840;0.214;2022-12-08T15:38:40;23.13;;;16.95;;
34902;SDS011;21114;44.840;0.214;2022-12-08T15:41:57;19.40;;;14.85;;
34902;SDS011;21114;44.840;0.214;2022-12-08T15:44:23;16.80;;;13.82;;
34902;SDS011;21114;44.840;0.214;2022-12-08T15:46:49;18.17;;;12.55;;
34902;SDS011;21114;44.840;0.214;2022-12-08T15:49:16;17.50;;;13.73;;
34902;SDS011;21114;44.840;0.214;2022-12-08T15:52:31;24.33;;;18.95;;
34902;SDS011;21114;44.840;0.214;2022-12-08T15:54:57;20.70;;;15.80;;
34902;SDS011;21114;44.840;0.214;2022-12-08T15:57:24;23.27;;;17.38;;
34902;SDS011;21114;44.840;0.214;2022-12-08T16:00:39;25.92;;;16.02;;
34902;SDS011;21114;44.840;0.214;2022-12-08T16:03:05;18.13;;;13.82;;
34902;SDS011;21114;44.840;0.214;2022-12-08T16:05:31;18.35;;;14.15;;
34902;SDS011;21114;44.840;0.214;2022-12-08T16:07:57;18.95;;;14.25;;
34902;SDS011;21114;44.840;0.214;2022-12-08T16:10:25;15.88;;;12.52;;
34902;SDS011;21114;44.840;0.214;2022-12-08T16:13:36;14.98;;;11.32;;
34902;SDS011;21114;44.840;0.214;2022-12-08T16:16:31;20.05;;;11.77;;
34902;SDS011;21114;44.840;0.214;2022-12-08T16:18:57;15.95;;;12.43;;
34902;SDS011;21114;44.840;0.214;2022-12-08T16:21:23;15.73;;;10.75;;
34902;SDS011;21114;44.840;0.214;2022-12-08T16:23:51;25.38;;;16.52;;
34902;SDS011;21114;44.840;0.214;2022-12-08T16:26:18;22.65;;;19.27;;
34902;SDS011;21114;44.840;0.214;2022-12-08T16:29:33;23.60;;;16.38;;
34902;SDS011;21114;44.840;0.214;2022-12-08T16:31:59;30.67;;;17.48;;
34902;SDS011;21114;44.840;0.214;2022-12-08T16:34:25;18.75;;;14.70;;
34902;SDS011;21114;44.840;0.214;2022-12-08T16:36:52;18.42;;;14.60;;
34902;SDS011;21114;44.840;0.214;2022-12-08T16:39:18;19.25;;;15.68;;
34902;SDS011;21114;44.840;0.214;2022-12-08T16:41:44;21.23;;;15.50;;
34902;SDS011;21114;44.840;0.214;2022-12-08T16:44:39;26.95;;;18.15;;
34902;SDS011;21114;44.840;0.214;2022-12-08T16:47:56;22.35;;;16.77;;
34902;SDS011;21114;44.840;0.214;2022-12-08T16:51:15;24.50;;;18.73;;
34902;SDS011;21114;44.840;0.214;2022-12-08T16:54:29;21.00;;;17.33;;
34902;SDS011;21114;44.840;0.214;2022-12-08T16:56:55;24.60;;;18.02;;
34902;SDS011;21114;44.840;0.214;2022-12-08T16:59:22;25.60;;;19.08;;
34902;SDS011;21114;44.840;0.214;2022-12-08T17:01:48;20.42;;;15.88;;
34902;SDS011;21114;44.840;0.214;2022-12-08T17:04:14;22.63;;;16.98;;
34902;SDS011;21114;44.840;0.214;2022-12-08T17:06:40;21.58;;;17.63;;
34902;SDS011;21114;44.840;0.214;2022-12-08T17:09:06;16.73;;;13.75;;
34902;SDS011;21114;44.840;0.214;2022-12-08T17:11:32;16.25;;;11.80;;
34902;SDS011;21114;44.840;0.214;2022-12-08T17:13:59;17.50;;;13.15;;
34902;SDS011;21114;44.840;0.214;2022-12-08T17:16:25;17.30;;;13.43;;
34902;SDS011;21114;44.840;0.214;2022-12-08T17:19:40;18.95;;;13.20;;
34902;SDS011;21114;44.840;0.214;2022-12-08T17:22:06;20.45;;;15.45;;
34902;SDS011;21114;44.840;0.214;2022-12-08T17:24:32;22.05;;;16.30;;
34902;SDS011;21114;44.840;0.214;2022-12-08T17:26:58;24.25;;;17.60;;
34902;SDS011;21114;44.840;0.214;2022-12-08T17:29:28;19.73;;;15.48;;
34902;SDS011;21114;44.840;0.214;2022-12-08T17:31:55;24.00;;;16.60;;
34902;SDS011;21114;44.840;0.214;2022-12-08T17:34:21;18.25;;;15.30;;
34902;SDS011;21114;44.840;0.214;2022-12-08T17:36:47;19.77;;;14.65;;
34902;SDS011;21114;44.840;0.214;2022-12-08T17:39:13;18.92;;;14.43;;
34902;SDS011;21114;44.840;0.214;2022-12-08T17:41:39;19.75;;;16.05;;
34902;SDS011;21114;44.840;0.214;2022-12-08T17:44:09;24.95;;;19.10;;
34902;SDS011;21114;44.840;0.214;2022-12-08T17:47:24;27.42;;;18.42;;
34902;SDS011;21114;44.840;0.214;2022-12-08T17:49:50;24.20;;;17.27;;